sensor_id;sensor_type;location;lat;lon;timestamp;temperature;humidity
6484;DHT22;3275;52.376;9.694;2024-03-02T00:00:30;9.90;99.90
6484;DHT22;3275;52.376;9.694;2024-03-02T00:02:57;9.90;99.90
6484;DHT22;3275;52.376;9.694;2024-03-02T00:05:23;9.90;99.90
6484;DHT22;3275;52.376;9.694;2024-03-02T00:07:53;9.90;99.90
6484;DHT22;3275;52.376;9.694;2024-03-02T00:10:24;9.80;99.90
6484;DHT22;3275;52.376;9.694;2024-03-02T00:12:55;9.90;99.90
6484;DHT22;3275;52.376;9.694;2024-03-02T00:15:40;9.80;99.90
6484;DHT22;3275;52.376;9.694;2024-03-02T00:18:08;9.80;99.90
6484;DHT22;3275;52.376;9.694;2024-03-02T00:20:36;9.80;99.90
6484;DHT22;3275;52.376;9.694;2024-03-02T00:23:04;9.80;99.90
6484;DHT22;3275;52.376;9.694;2024-03-02T00:25:38;9.80;99.90
6484;DHT22;3275;52.376;9.694;2024-03-02T00:28:11;9.80;99.90
6484;DHT22;3275;52.376;9.694;2024-03-02T00:30:51;9.80;99.90
6484;DHT22;3275;52.376;9.694;2024-03-02T00:33:18;9.90;99.90
6484;DHT22;3275;52.376;9.694;2024-03-02T00:35:46;9.90;99.90
6484;DHT22;3275;52.376;9.694;2024-03-02T00:38:13;9.90;99.90
6484;DHT22;3275;52.376;9.694;2024-03-02T00:40:42;9.90;99.90
6484;DHT22;3275;52.376;9.694;2024-03-02T00:43:28;9.90;99.90
6484;DHT22;3275;52.376;9.694;2024-03-02T00:45:58;9.90;99.90
6484;DHT22;3275;52.376;9.694;2024-03-02T00:48:24;10.00;99.90
6484;DHT22;3275;52.376;9.694;2024-03-02T00:50:52;9.90;99.90
6484;DHT22;3275;52.376;9.694;2024-03-02T00:53:21;9.90;99.90
6484;DHT22;3275;52.376;9.694;2024-03-02T00:55:50;10.00;99.90
6484;DHT22;3275;52.376;9.694;2024-03-02T00:58:17;10.00;99.90
6484;DHT22;3275;52.376;9.694;2024-03-02T01:00:43;10.00;99.90
6484;DHT22;3275;52.376;9.694;2024-03-02T01:03:10;10.00;99.90
6484;DHT22;3275;52.376;9.694;2024-03-02T01:05:41;10.00;99.90
6484;DHT22;3275;52.376;9.694;2024-03-02T01:08:07;10.00;99.90
6484;DHT22;3275;52.376;9.694;2024-03-02T01:10:34;9.90;99.90
6484;DHT22;3275;52.376;9.694;2024-03-02T01:13:02;9.90;99.90
6484;DHT22;3275;52.376;9.694;2024-03-02T01:15:29;9.90;99.90
6484;DHT22;3275;52.376;9.694;2024-03-02T01:17:56;9.80;99.90
6484;DHT22;3275;52.376;9.694;2024-03-02T01:20:22;9.80;99.90
6484;DHT22;3275;52.376;9.694;2024-03-02T01:22:50;9.80;99.90
6484;DHT22;3275;52.376;9.694;2024-03-02T01:25:17;9.80;99.90
6484;DHT22;3275;52.376;9.694;2024-03-02T01:27:44;9.80;99.90
6484;DHT22;3275;52.376;9.694;2024-03-02T01:30:12;9.80;99.90
6484;DHT22;3275;52.376;9.694;2024-03-02T01:32:38;9.70;99.90
6484;DHT22;3275;52.376;9.694;2024-03-02T01:35:06;9.80;99.90
6484;DHT22;3275;52.376;9.694;2024-03-02T01:37:33;9.80;99.90
6484;DHT22;3275;52.376;9.694;2024-03-02T01:40:00;9.80;99.90
6484;DHT22;3275;52.376;9.694;2024-03-02T01:42:28;8.50;99.90
6484;DHT22;3275;52.376;9.694;2024-03-02T01:44:54;9.80;99.90
6484;DHT22;3275;52.376;9.694;2024-03-02T01:47:22;9.80;99.90
6484;DHT22;3275;52.376;9.694;2024-03-02T01:49:49;9.80;99.90
6484;DHT22;3275;52.376;9.694;2024-03-02T01:52:16;9.80;99.90
6484;DHT22;3275;52.376;9.694;2024-03-02T01:54:42;9.80;99.90
6484;DHT22;3275;52.376;9.694;2024-03-02T01:57:09;9.80;99.90
6484;DHT22;3275;52.376;9.694;2024-03-02T01:59:36;9.60;99.90
6484;DHT22;3275;52.376;9.694;2024-03-02T02:02:03;9.60;99.90
6484;DHT22;3275;52.376;9.694;2024-03-02T02:04:33;9.60;99.90
6484;DHT22;3275;52.376;9.694;2024-03-02T02:07:00;9.70;99.90
6484;DHT22;3275;52.376;9.694;2024-03-02T02:09:27;9.70;99.90
6484;DHT22;3275;52.376;9.694;2024-03-02T02:11:53;9.70;99.90
6484;DHT22;3275;52.376;9.694;2024-03-02T02:14:20;9.70;99.90
6484;DHT22;3275;52.376;9.694;2024-03-02T02:16:46;9.70;99.90
6484;DHT22;3275;52.376;9.694;2024-03-02T02:19:13;9.60;99.90
6484;DHT22;3275;52.376;9.694;2024-03-02T02:21:43;9.70;99.90
6484;DHT22;3275;52.376;9.694;2024-03-02T02:24:10;9.60;99.90
6484;DHT22;3275;52.376;9.694;2024-03-02T02:26:38;9.60;99.90
6484;DHT22;3275;52.376;9.694;2024-03-02T02:29:05;9.60;99.90
6484;DHT22;3275;52.376;9.694;2024-03-02T02:31:37;9.60;99.90
6484;DHT22;3275;52.376;9.694;2024-03-02T02:34:04;9.60;99.90
6484;DHT22;3275;52.376;9.694;2024-03-02T02:36:30;9.60;99.90
6484;DHT22;3275;52.376;9.694;2024-03-02T02:39:02;9.50;99.90
6484;DHT22;3275;52.376;9.694;2024-03-02T02:41:29;9.60;99.90
6484;DHT22;3275;52.376;9.694;2024-03-02T02:43:56;9.70;99.90
6484;DHT22;3275;52.376;9.694;2024-03-02T02:46:22;9.70;99.90
6484;DHT22;3275;52.376;9.694;2024-03-02T02:48:49;9.70;99.90
6484;DHT22;3275;52.376;9.694;2024-03-02T02:51:16;9.70;99.90
6484;DHT22;3275;52.376;9.694;2024-03-02T02:53:43;9.60;99.90
6484;DHT22;3275;52.376;9.694;2024-03-02T02:56:11;9.60;99.90
6484;DHT22;3275;52.376;9.694;2024-03-02T02:58:39;9.60;99.90
6484;DHT22;3275;52.376;9.694;2024-03-02T03:01:06;9.60;99.90
6484;DHT22;3275;52.376;9.694;2024-03-02T03:03:33;9.60;99.90
6484;DHT22;3275;52.376;9.694;2024-03-02T03:05:59;9.60;99.90
6484;DHT22;3275;52.376;9.694;2024-03-02T03:08:26;9.60;99.90
6484;DHT22;3275;52.376;9.694;2024-03-02T03:10:52;9.50;99.90
6484;DHT22;3275;52.376;9.694;2024-03-02T03:13:20;9.50;99.90
6484;DHT22;3275;52.376;9.694;2024-03-02T03:15:47;9.50;99.90
6484;DHT22;3275;52.376;9.694;2024-03-02T03:18:13;9.60;99.90
6484;DHT22;3275;52.376;9.694;2024-03-02T03:20:40;9.60;99.90
6484;DHT22;3275;52.376;9.694;2024-03-02T03:23:06;9.50;99.90
6484;DHT22;3275;52.376;9.694;2024-03-02T03:25:34;10.60;99.90
6484;DHT22;3275;52.376;9.694;2024-03-02T03:28:00;9.50;99.90
6484;DHT22;3275;52.376;9.694;2024-03-02T03:30:29;9.50;99.90
6484;DHT22;3275;52.376;9.694;2024-03-02T03:32:56;9.40;99.90
6484;DHT22;3275;52.376;9.694;2024-03-02T03:35:22;9.40;99.90
6484;DHT22;3275;52.376;9.694;2024-03-02T03:37:49;9.40;99.90
6484;DHT22;3275;52.376;9.694;2024-03-02T03:40:16;9.40;99.90
6484;DHT22;3275;52.376;9.694;2024-03-02T03:42:43;9.40;99.90
6484;DHT22;3275;52.376;9.694;2024-03-02T03:45:10;9.30;99.90
6484;DHT22;3275;52.376;9.694;2024-03-02T03:47:38;9.20;99.90
6484;DHT22;3275;52.376;9.694;2024-03-02T03:50:05;9.20;99.90
6484;DHT22;3275;52.376;9.694;2024-03-02T03:52:32;9.20;99.90
6484;DHT22;3275;52.376;9.694;2024-03-02T03:54:59;9.20;99.90
6484;DHT22;3275;52.376;9.694;2024-03-02T03:57:26;9.20;99.90
6484;DHT22;3275;52.376;9.694;2024-03-02T03:59:52;9.10;99.90
6484;DHT22;3275;52.376;9.694;2024-03-02T04:02:19;9.10;99.90
6484;DHT22;3275;52.376;9.694;2024-03-02T04:04:47;9.10;99.90
6484;DHT22;3275;52.376;9.694;2024-03-02T04:07:14;9.00;99.90
6484;DHT22;3275;52.376;9.694;2024-03-02T04:09:40;9.10;99.90
6484;DHT22;3275;52.376;9.694;2024-03-02T04:12:07;9.10;99.90
6484;DHT22;3275;52.376;9.694;2024-03-02T04:14:33;9.20;99.90
6484;DHT22;3275;52.376;9.694;2024-03-02T04:17:00;9.10;99.90
6484;DHT22;3275;52.376;9.694;2024-03-02T04:19:26;9.10;99.90
6484;DHT22;3275;52.376;9.694;2024-03-02T04:21:54;9.10;99.90
6484;DHT22;3275;52.376;9.694;2024-03-02T04:24:21;9.10;99.90
6484;DHT22;3275;52.376;9.694;2024-03-02T04:26:47;9.10;99.90
6484;DHT22;3275;52.376;9.694;2024-03-02T04:29:14;9.10;99.90
6484;DHT22;3275;52.376;9.694;2024-03-02T04:31:40;9.10;99.90
6484;DHT22;3275;52.376;9.694;2024-03-02T04:34:07;9.10;99.90
6484;DHT22;3275;52.376;9.694;2024-03-02T04:36:34;9.00;99.90
6484;DHT22;3275;52.376;9.694;2024-03-02T04:39:02;9.00;99.90
6484;DHT22;3275;52.376;9.694;2024-03-02T04:41:29;9.10;99.90
6484;DHT22;3275;52.376;9.694;2024-03-02T04:43:56;9.00;99.90
6484;DHT22;3275;52.376;9.694;2024-03-02T04:46:22;9.10;99.90
6484;DHT22;3275;52.376;9.694;2024-03-02T04:48:50;9.00;99.90
6484;DHT22;3275;52.376;9.694;2024-03-02T04:51:21;9.10;99.90
6484;DHT22;3275;52.376;9.694;2024-03-02T04:53:47;9.00;99.90
6484;DHT22;3275;52.376;9.694;2024-03-02T04:56:15;9.00;99.90
6484;DHT22;3275;52.376;9.694;2024-03-02T04:59:05;8.90;99.90
6484;DHT22;3275;52.376;9.694;2024-03-02T05:01:32;9.00;99.90
6484;DHT22;3275;52.376;9.694;2024-03-02T05:03:59;9.00;99.90
6484;DHT22;3275;52.376;9.694;2024-03-02T05:06:25;9.00;99.90
6484;DHT22;3275;52.376;9.694;2024-03-02T05:08:52;8.90;99.90
6484;DHT22;3275;52.376;9.694;2024-03-02T05:11:20;8.90;99.90
6484;DHT22;3275;52.376;9.694;2024-03-02T05:14:14;8.90;99.90
6484;DHT22;3275;52.376;9.694;2024-03-02T05:16:41;8.90;99.90
6484;DHT22;3275;52.376;9.694;2024-03-02T05:19:08;9.00;99.90
6484;DHT22;3275;52.376;9.694;2024-03-02T05:21:35;8.90;99.90
6484;DHT22;3275;52.376;9.694;2024-03-02T05:24:01;8.90;99.90
6484;DHT22;3275;52.376;9.694;2024-03-02T05:26:29;8.80;99.90
6484;DHT22;3275;52.376;9.694;2024-03-02T05:28:56;8.80;99.90
6484;DHT22;3275;52.376;9.694;2024-03-02T05:31:22;8.80;99.90
6484;DHT22;3275;52.376;9.694;2024-03-02T05:33:49;8.80;99.90
6484;DHT22;3275;52.376;9.694;2024-03-02T05:36:15;8.70;99.90
6484;DHT22;3275;52.376;9.694;2024-03-02T05:38:42;8.70;99.90
6484;DHT22;3275;52.376;9.694;2024-03-02T05:41:08;8.60;99.90
6484;DHT22;3275;52.376;9.694;2024-03-02T05:43:36;8.60;99.90
6484;DHT22;3275;52.376;9.694;2024-03-02T05:46:03;8.60;99.90
6484;DHT22;3275;52.376;9.694;2024-03-02T05:48:30;8.70;99.90
6484;DHT22;3275;52.376;9.694;2024-03-02T05:50:56;8.50;99.90
6484;DHT22;3275;52.376;9.694;2024-03-02T05:53:23;8.50;99.90
6484;DHT22;3275;52.376;9.694;2024-03-02T05:55:49;8.40;99.90
6484;DHT22;3275;52.376;9.694;2024-03-02T05:58:18;8.30;99.90
6484;DHT22;3275;52.376;9.694;2024-03-02T06:00:58;8.40;99.90
6484;DHT22;3275;52.376;9.694;2024-03-02T06:03:24;8.40;99.90
6484;DHT22;3275;52.376;9.694;2024-03-02T06:05:51;8.50;99.90
6484;DHT22;3275;52.376;9.694;2024-03-02T06:08:17;8.50;99.90
6484;DHT22;3275;52.376;9.694;2024-03-02T06:10:44;8.60;99.90
6484;DHT22;3275;52.376;9.694;2024-03-02T06:13:11;8.60;99.90
6484;DHT22;3275;52.376;9.694;2024-03-02T06:15:38;8.60;99.90
6484;DHT22;3275;52.376;9.694;2024-03-02T06:18:06;8.60;99.90
6484;DHT22;3275;52.376;9.694;2024-03-02T06:20:33;8.70;99.90
6484;DHT22;3275;52.376;9.694;2024-03-02T06:23:00;8.60;99.90
6484;DHT22;3275;52.376;9.694;2024-03-02T06:25:27;8.50;99.90
6484;DHT22;3275;52.376;9.694;2024-03-02T06:27:53;8.60;99.90
6484;DHT22;3275;52.376;9.694;2024-03-02T06:30:20;8.60;99.90
6484;DHT22;3275;52.376;9.694;2024-03-02T06:32:46;8.50;99.90
6484;DHT22;3275;52.376;9.694;2024-03-02T06:35:14;8.40;99.90
6484;DHT22;3275;52.376;9.694;2024-03-02T06:37:41;8.40;99.90
6484;DHT22;3275;52.376;9.694;2024-03-02T06:40:08;8.30;99.90
6484;DHT22;3275;52.376;9.694;2024-03-02T06:42:35;8.30;99.90
6484;DHT22;3275;52.376;9.694;2024-03-02T06:45:02;8.30;99.90
6484;DHT22;3275;52.376;9.694;2024-03-02T06:47:29;8.20;99.90
6484;DHT22;3275;52.376;9.694;2024-03-02T06:49:56;8.30;99.90
6484;DHT22;3275;52.376;9.694;2024-03-02T06:52:25;8.30;99.90
6484;DHT22;3275;52.376;9.694;2024-03-02T06:54:51;8.50;99.90
6484;DHT22;3275;52.376;9.694;2024-03-02T06:57:18;8.50;99.90
6484;DHT22;3275;52.376;9.694;2024-03-02T06:59:46;8.40;99.90
6484;DHT22;3275;52.376;9.694;2024-03-02T07:02:12;8.40;99.90
6484;DHT22;3275;52.376;9.694;2024-03-02T07:04:39;8.50;99.90
6484;DHT22;3275;52.376;9.694;2024-03-02T07:07:05;8.60;99.90
6484;DHT22;3275;52.376;9.694;2024-03-02T07:09:33;8.70;99.90
6484;DHT22;3275;52.376;9.694;2024-03-02T07:12:00;8.80;99.90
6484;DHT22;3275;52.376;9.694;2024-03-02T07:14:27;8.80;99.90
6484;DHT22;3275;52.376;9.694;2024-03-02T07:17:20;8.90;99.90
6484;DHT22;3275;52.376;9.694;2024-03-02T07:19:47;8.90;99.90
6484;DHT22;3275;52.376;9.694;2024-03-02T07:22:14;9.00;99.90
6484;DHT22;3275;52.376;9.694;2024-03-02T07:24:42;9.10;99.90
6484;DHT22;3275;52.376;9.694;2024-03-02T07:27:09;9.10;99.90
6484;DHT22;3275;52.376;9.694;2024-03-02T07:29:38;9.10;99.90
6484;DHT22;3275;52.376;9.694;2024-03-02T07:32:05;9.10;99.90
6484;DHT22;3275;52.376;9.694;2024-03-02T07:34:32;9.00;99.90
6484;DHT22;3275;52.376;9.694;2024-03-02T19:36:16;11.70;99.30
6484;DHT22;3275;52.376;9.694;2024-03-02T19:38:42;11.80;99.60
6484;DHT22;3275;52.376;9.694;2024-03-02T19:41:09;11.60;99.60
6484;DHT22;3275;52.376;9.694;2024-03-02T19:43:36;11.60;99.70
6484;DHT22;3275;52.376;9.694;2024-03-02T19:46:03;11.60;99.80
6484;DHT22;3275;52.376;9.694;2024-03-02T19:48:30;11.60;99.90
6484;DHT22;3275;52.376;9.694;2024-03-02T19:50:56;11.60;99.90
6484;DHT22;3275;52.376;9.694;2024-03-02T19:53:24;11.50;99.90
6484;DHT22;3275;52.376;9.694;2024-03-02T19:55:51;11.50;99.90
6484;DHT22;3275;52.376;9.694;2024-03-02T19:58:18;11.50;99.90
6484;DHT22;3275;52.376;9.694;2024-03-02T20:00:44;11.50;99.90
6484;DHT22;3275;52.376;9.694;2024-03-02T20:03:11;11.50;99.90
6484;DHT22;3275;52.376;9.694;2024-03-02T20:05:39;11.40;99.90
6484;DHT22;3275;52.376;9.694;2024-03-02T20:08:06;11.40;99.90
6484;DHT22;3275;52.376;9.694;2024-03-02T20:10:35;11.30;99.90
6484;DHT22;3275;52.376;9.694;2024-03-02T20:13:01;11.30;99.90
6484;DHT22;3275;52.376;9.694;2024-03-02T20:15:31;11.20;99.90
6484;DHT22;3275;52.376;9.694;2024-03-02T20:17:57;11.20;99.90
6484;DHT22;3275;52.376;9.694;2024-03-02T20:20:24;11.30;99.90
6484;DHT22;3275;52.376;9.694;2024-03-02T20:22:51;11.30;99.90
6484;DHT22;3275;52.376;9.694;2024-03-02T20:25:18;11.30;99.90
6484;DHT22;3275;52.376;9.694;2024-03-02T20:27:46;11.30;99.90
6484;DHT22;3275;52.376;9.694;2024-03-02T20:30:13;11.20;99.90
6484;DHT22;3275;52.376;9.694;2024-03-02T20:32:40;11.20;99.90
6484;DHT22;3275;52.376;9.694;2024-03-02T20:35:08;11.20;99.90
6484;DHT22;3275;52.376;9.694;2024-03-02T20:37:35;11.20;99.90
6484;DHT22;3275;52.376;9.694;2024-03-02T20:40:02;11.20;99.90
6484;DHT22;3275;52.376;9.694;2024-03-02T20:42:29;11.20;99.90
6484;DHT22;3275;52.376;9.694;2024-03-02T20:44:57;11.20;99.90
6484;DHT22;3275;52.376;9.694;2024-03-02T20:47:24;11.10;99.90
6484;DHT22;3275;52.376;9.694;2024-03-02T20:49:51;11.10;99.90
6484;DHT22;3275;52.376;9.694;2024-03-02T20:52:18;11.10;99.90
6484;DHT22;3275;52.376;9.694;2024-03-02T20:54:45;11.10;99.90
6484;DHT22;3275;52.376;9.694;2024-03-02T20:57:12;11.00;99.90
6484;DHT22;3275;52.376;9.694;2024-03-02T20:59:38;11.00;99.90
6484;DHT22;3275;52.376;9.694;2024-03-02T21:02:07;11.00;99.90
6484;DHT22;3275;52.376;9.694;2024-03-02T21:04:33;10.90;99.90
6484;DHT22;3275;52.376;9.694;2024-03-02T21:07:00;11.00;99.90
6484;DHT22;3275;52.376;9.694;2024-03-02T21:09:28;11.00;99.90
6484;DHT22;3275;52.376;9.694;2024-03-02T21:11:54;10.90;99.90
6484;DHT22;3275;52.376;9.694;2024-03-02T21:14:21;10.90;99.90
6484;DHT22;3275;52.376;9.694;2024-03-02T21:16:49;10.90;99.90
6484;DHT22;3275;52.376;9.694;2024-03-02T21:19:17;10.90;99.90
6484;DHT22;3275;52.376;9.694;2024-03-02T21:21:43;10.90;99.90
6484;DHT22;3275;52.376;9.694;2024-03-02T21:24:10;10.90;99.90
6484;DHT22;3275;52.376;9.694;2024-03-02T21:26:38;10.90;99.90
6484;DHT22;3275;52.376;9.694;2024-03-02T21:29:06;10.90;99.90
6484;DHT22;3275;52.376;9.694;2024-03-02T21:31:33;10.90;99.90
6484;DHT22;3275;52.376;9.694;2024-03-02T21:33:59;10.90;99.90
6484;DHT22;3275;52.376;9.694;2024-03-02T21:36:27;10.80;99.90
6484;DHT22;3275;52.376;9.694;2024-03-02T21:38:54;10.80;99.90
6484;DHT22;3275;52.376;9.694;2024-03-02T21:41:20;10.80;99.90
6484;DHT22;3275;52.376;9.694;2024-03-02T21:43:47;10.80;99.90
6484;DHT22;3275;52.376;9.694;2024-03-02T21:46:14;10.80;99.90
6484;DHT22;3275;52.376;9.694;2024-03-02T21:48:41;10.80;99.90
6484;DHT22;3275;52.376;9.694;2024-03-02T21:51:08;10.70;99.90
6484;DHT22;3275;52.376;9.694;2024-03-02T21:53:37;10.70;99.90
6484;DHT22;3275;52.376;9.694;2024-03-02T21:56:04;10.70;99.90
6484;DHT22;3275;52.376;9.694;2024-03-02T21:58:30;10.70;99.90
6484;DHT22;3275;52.376;9.694;2024-03-02T22:00:57;10.50;99.90
6484;DHT22;3275;52.376;9.694;2024-03-02T22:03:24;10.50;99.90
6484;DHT22;3275;52.376;9.694;2024-03-02T22:05:50;10.40;99.90
6484;DHT22;3275;52.376;9.694;2024-03-02T22:08:17;10.40;99.90
6484;DHT22;3275;52.376;9.694;2024-03-02T22:10:45;10.40;99.90
6484;DHT22;3275;52.376;9.694;2024-03-02T22:13:12;10.40;99.90
6484;DHT22;3275;52.376;9.694;2024-03-02T22:15:39;10.40;99.90
6484;DHT22;3275;52.376;9.694;2024-03-02T22:18:05;10.40;99.90
6484;DHT22;3275;52.376;9.694;2024-03-02T22:20:32;10.50;99.90
6484;DHT22;3275;52.376;9.694;2024-03-02T22:22:58;10.50;99.90
6484;DHT22;3275;52.376;9.694;2024-03-02T22:25:25;10.30;99.90
6484;DHT22;3275;52.376;9.694;2024-03-02T22:27:53;10.40;99.90
6484;DHT22;3275;52.376;9.694;2024-03-02T22:30:21;10.30;99.90
6484;DHT22;3275;52.376;9.694;2024-03-02T22:32:48;10.40;99.90
6484;DHT22;3275;52.376;9.694;2024-03-02T22:35:15;10.30;99.90
6484;DHT22;3275;52.376;9.694;2024-03-02T22:37:41;10.40;99.90
6484;DHT22;3275;52.376;9.694;2024-03-02T22:40:08;10.20;99.90
6484;DHT22;3275;52.376;9.694;2024-03-02T22:42:36;10.30;99.90
6484;DHT22;3275;52.376;9.694;2024-03-02T22:45:05;10.30;99.90
6484;DHT22;3275;52.376;9.694;2024-03-02T22:47:32;10.30;99.90
6484;DHT22;3275;52.376;9.694;2024-03-02T22:49:59;10.20;99.90
6484;DHT22;3275;52.376;9.694;2024-03-02T22:52:26;10.10;99.90
6484;DHT22;3275;52.376;9.694;2024-03-02T22:54:53;10.20;99.90
6484;DHT22;3275;52.376;9.694;2024-03-02T22:57:19;10.10;99.90
6484;DHT22;3275;52.376;9.694;2024-03-02T22:59:47;10.10;99.90
6484;DHT22;3275;52.376;9.694;2024-03-02T23:02:15;10.10;99.90
6484;DHT22;3275;52.376;9.694;2024-03-02T23:04:43;10.10;99.90
6484;DHT22;3275;52.376;9.694;2024-03-02T23:07:09;10.10;99.90
6484;DHT22;3275;52.376;9.694;2024-03-02T23:09:36;10.10;99.90
6484;DHT22;3275;52.376;9.694;2024-03-02T23:12:03;10.10;99.90
6484;DHT22;3275;52.376;9.694;2024-03-02T23:14:30;10.10;99.90
6484;DHT22;3275;52.376;9.694;2024-03-02T23:16:56;10.10;99.90
6484;DHT22;3275;52.376;9.694;2024-03-02T23:19:24;10.10;99.90
6484;DHT22;3275;52.376;9.694;2024-03-02T23:21:51;10.00;99.90
6484;DHT22;3275;52.376;9.694;2024-03-02T23:24:18;9.90;99.90
6484;DHT22;3275;52.376;9.694;2024-03-02T23:26:45;9.90;99.90
6484;DHT22;3275;52.376;9.694;2024-03-02T23:29:11;9.90;99.90
6484;DHT22;3275;52.376;9.694;2024-03-02T23:31:38;9.90;99.90
6484;DHT22;3275;52.376;9.694;2024-03-02T23:34:04;9.90;99.90
6484;DHT22;3275;52.376;9.694;2024-03-02T23:36:32;9.90;99.90
6484;DHT22;3275;52.376;9.694;2024-03-02T23:38:59;9.80;99.90
6484;DHT22;3275;52.376;9.694;2024-03-02T23:41:29;9.80;99.90
6484;DHT22;3275;52.376;9.694;2024-03-02T23:43:56;9.70;99.90
6484;DHT22;3275;52.376;9.694;2024-03-02T23:46:24;9.70;99.90
6484;DHT22;3275;52.376;9.694;2024-03-02T23:48:51;9.60;99.90
6484;DHT22;3275;52.376;9.694;2024-03-02T23:51:18;9.70;99.90
6484;DHT22;3275;52.376;9.694;2024-03-02T23:53:46;9.60;99.90
6484;DHT22;3275;52.376;9.694;2024-03-02T23:56:13;9.50;99.90
6484;DHT22;3275;52.376;9.694;2024-03-02T23:58:40;9.50;99.90
